createdAt,value
2022-12-25T00:00:02.798Z,6.6
2022-12-25T00:05:01.145Z,7.1
2022-12-25T00:10:06.066Z,7.0
2022-12-25T00:15:07.504Z,6.5
2022-12-25T00:20:01.503Z,6.7
2022-12-25T00:25:01.150Z,6.8
2022-12-25T00:30:04.515Z,6.8
2022-12-25T00:35:01.075Z,7.0
2022-12-25T00:40:01.077Z,6.8
2022-12-25T00:45:01.818Z,6.5
2022-12-25T00:50:01.153Z,6.6
2022-12-25T00:55:01.085Z,6.6
2022-12-25T01:00:06.891Z,6.6
2022-12-25T01:10:01.065Z,6.8
2022-12-25T01:15:08.910Z,6.6
2022-12-25T01:20:01.781Z,6.2
2022-12-25T01:25:01.079Z,5.8
2022-12-25T01:30:01.530Z,5.8
2022-12-25T01:40:01.165Z,5.7
2022-12-25T01:45:16.455Z,5.7
2022-12-25T01:50:01.100Z,5.9
2022-12-25T01:55:01.070Z,5.5
2022-12-25T02:00:01.708Z,5.2
2022-12-25T02:05:01.149Z,5.3
2022-12-25T02:10:01.101Z,5.9
2022-12-25T02:15:08.795Z,5.8
2022-12-25T02:20:06.177Z,5.8
2022-12-25T02:25:14.421Z,6.2
2022-12-25T02:30:08.315Z,5.9
2022-12-25T02:35:01.164Z,5.3
2022-12-25T02:40:06.096Z,5.0
2022-12-25T02:45:01.645Z,5.2
2022-12-25T02:50:01.089Z,5.2
2022-12-25T02:55:01.210Z,5.2
2022-12-25T03:00:05.010Z,5.3
2022-12-25T03:05:01.104Z,5.5
2022-12-25T03:10:01.327Z,5.8
2022-12-25T03:15:01.954Z,5.7
2022-12-25T03:20:01.134Z,5.6
2022-12-25T03:25:01.106Z,6.2
2022-12-25T03:30:02.767Z,6.5
2022-12-25T03:35:06.757Z,6.2
2022-12-25T03:40:01.838Z,6.6
2022-12-25T03:45:07.930Z,7.0
2022-12-25T03:50:01.100Z,6.9
2022-12-25T03:55:12.028Z,7.1
2022-12-25T04:00:07.161Z,7.3
2022-12-25T04:05:01.107Z,7.1
2022-12-25T04:10:01.494Z,6.9
2022-12-25T04:15:01.647Z,6.6
2022-12-25T04:20:06.380Z,6.5
2022-12-25T04:25:01.104Z,6.2
2022-12-25T04:30:01.619Z,6.0
2022-12-25T04:35:01.206Z,5.6
2022-12-25T04:40:01.148Z,5.0
2022-12-25T04:45:12.534Z,4.8
2022-12-25T04:50:08.072Z,5.3
2022-12-25T04:55:06.111Z,6.3
2022-12-25T05:00:08.142Z,7.4
2022-12-25T05:05:01.174Z,10.0
2022-12-25T05:10:01.265Z,11.0
2022-12-25T05:15:01.178Z,12.3
2022-12-25T05:20:06.965Z,11.2
2022-12-25T05:25:01.140Z,12.2
2022-12-25T05:30:02.537Z,10.5
2022-12-25T05:35:01.549Z,10.0
2022-12-25T05:45:01.112Z,13.5
2022-12-25T05:50:06.189Z,12.7
2022-12-25T05:55:01.143Z,12.9
2022-12-25T06:00:07.536Z,12.6
2022-12-25T06:05:06.125Z,11.8
2022-12-25T06:10:01.237Z,7.9
2022-12-25T06:15:07.039Z,7.6
2022-12-25T06:20:01.227Z,6.8
2022-12-25T06:25:01.156Z,7.8
2022-12-25T06:30:02.223Z,8.3
2022-12-25T06:35:01.127Z,8.8
2022-12-25T06:45:02.696Z,9.7
2022-12-25T06:50:11.755Z,9.1
2022-12-25T06:55:06.134Z,9.7
2022-12-25T07:00:01.893Z,10.7
2022-12-25T07:05:01.225Z,12.0
2022-12-25T07:10:11.766Z,12.4
2022-12-25T07:15:07.019Z,15.3
2022-12-25T07:20:01.118Z,15.0
2022-12-25T07:25:06.133Z,16.6
2022-12-25T07:30:01.771Z,16.4
2022-12-25T07:40:02.252Z,15.5
2022-12-25T07:45:02.019Z,16.3
2022-12-25T07:50:01.940Z,15.6
2022-12-25T07:55:01.128Z,16.3
2022-12-25T08:00:05.049Z,19.0
2022-12-25T08:05:06.223Z,18.3
2022-12-25T08:10:06.241Z,19.6
2022-12-25T08:15:08.355Z,20.2
2022-12-25T08:20:06.156Z,20.9
2022-12-25T08:25:06.260Z,18.0
2022-12-25T08:30:02.049Z,20.1
2022-12-25T08:35:01.162Z,19.5
2022-12-25T08:40:01.672Z,19.4
2022-12-25T08:45:07.097Z,19.7
2022-12-25T08:50:03.620Z,22.8
2022-12-25T08:55:01.172Z,24.1
2022-12-25T09:00:02.282Z,25.4
2022-12-25T09:05:01.275Z,25.8
2022-12-25T09:15:01.888Z,24.5
2022-12-25T09:20:01.146Z,23.2
2022-12-25T09:25:01.262Z,23.2
2022-12-25T09:30:01.830Z,22.9
2022-12-25T09:35:01.150Z,24.2
2022-12-25T09:40:02.483Z,24.4
2022-12-25T09:45:03.728Z,25.2
2022-12-25T09:50:16.551Z,24.8
2022-12-25T09:55:01.218Z,25.8
2022-12-25T10:00:01.894Z,24.6
2022-12-25T10:05:08.106Z,26.2
2022-12-25T10:10:15.115Z,27.1
2022-12-25T10:15:08.965Z,29.2
2022-12-25T10:20:01.160Z,29.4
2022-12-25T10:25:02.732Z,29.4
2022-12-25T10:30:05.362Z,28.6
2022-12-25T10:35:06.200Z,27.0
2022-12-25T10:40:02.315Z,24.6
2022-12-25T10:45:04.794Z,23.2
2022-12-25T10:50:02.180Z,22.3
2022-12-25T10:55:02.127Z,21.5
2022-12-25T11:00:09.274Z,21.4
2022-12-25T11:05:02.420Z,22.5
2022-12-25T11:10:06.255Z,23.6
2022-12-25T11:15:21.558Z,25.1
2022-12-25T11:25:01.234Z,25.1
2022-12-25T11:30:25.025Z,24.3
2022-12-25T11:35:01.456Z,22.8
2022-12-25T11:40:06.194Z,21.5
2022-12-25T11:45:22.591Z,21.1
2022-12-25T11:50:01.526Z,21.4
2022-12-25T11:55:01.283Z,20.7
2022-12-25T12:00:07.879Z,21.2
2022-12-25T12:05:06.184Z,21.3
2022-12-25T12:10:01.158Z,21.0
2022-12-25T12:15:16.733Z,19.6
2022-12-25T12:20:06.784Z,20.4
2022-12-25T12:25:07.330Z,20.1
2022-12-25T12:30:02.410Z,20.0
2022-12-25T12:35:01.243Z,19.3
2022-12-25T12:40:01.757Z,19.9
2022-12-25T12:45:15.270Z,18.9
2022-12-25T12:50:01.172Z,18.2
2022-12-25T12:55:01.243Z,17.9
2022-12-25T13:00:16.705Z,17.4
2022-12-25T13:05:05.747Z,16.9
2022-12-25T13:10:01.249Z,16.2
2022-12-25T13:16:01.551Z,15.6
2022-12-25T13:21:06.259Z,14.5
2022-12-25T13:26:01.591Z,13.6
2022-12-25T13:31:01.172Z,12.6
2022-12-25T13:36:01.308Z,12.3
2022-12-25T13:46:01.306Z,13.1
2022-12-25T13:51:06.171Z,13.4
2022-12-25T13:56:01.171Z,13.6
2022-12-25T14:01:01.293Z,13.4
2022-12-25T14:06:06.225Z,13.1
2022-12-25T14:11:01.235Z,13.4
2022-12-25T14:16:01.261Z,13.6
2022-12-25T14:22:05.365Z,14.4
2022-12-25T14:27:06.347Z,14.9
2022-12-25T14:32:06.672Z,15.3
2022-12-25T14:42:02.204Z,16.0
2022-12-25T14:47:06.283Z,15.4
2022-12-25T14:52:01.233Z,15.6
2022-12-25T14:57:06.273Z,16.1
2022-12-25T15:02:02.586Z,16.0
2022-12-25T15:07:04.036Z,16.0
2022-12-25T15:12:01.173Z,17.1
2022-12-25T15:17:01.281Z,17.7
2022-12-25T15:22:01.316Z,18.0
2022-12-25T15:27:06.240Z,18.6
2022-12-25T15:32:01.194Z,18.4
2022-12-25T15:37:01.457Z,18.8
2022-12-25T15:42:01.960Z,18.1
2022-12-25T15:47:01.314Z,18.4
2022-12-25T15:52:01.177Z,19.2
2022-12-25T15:57:06.203Z,20.4
2022-12-25T16:02:06.541Z,20.7
2022-12-25T16:07:01.245Z,21.8
2022-12-25T16:12:04.060Z,22.8
2022-12-25T16:17:01.295Z,23.2
2022-12-25T16:22:01.245Z,23.2
2022-12-25T16:27:02.864Z,22.9
2022-12-25T16:32:08.631Z,23.4
2022-12-25T16:37:02.182Z,24.0
2022-12-25T16:42:01.285Z,25.2
2022-12-25T16:47:01.377Z,26.0
2022-12-25T16:52:06.222Z,28.0
2022-12-25T17:02:01.550Z,27.6
2022-12-25T17:07:01.178Z,28.3
2022-12-25T17:12:01.191Z,26.5
2022-12-25T17:17:01.165Z,26.5
2022-12-25T17:22:01.232Z,28.2
2022-12-25T17:27:01.190Z,28.4
2022-12-25T17:32:01.298Z,28.2
2022-12-25T17:37:01.250Z,30.4
2022-12-25T17:42:06.264Z,30.2
2022-12-25T17:47:01.384Z,30.0
2022-12-25T17:58:01.280Z,28.2
2022-12-25T18:03:14.134Z,27.6
2022-12-25T18:08:02.221Z,28.0
2022-12-25T18:13:01.177Z,28.3
2022-12-25T18:18:06.681Z,29.3
2022-12-25T18:23:06.170Z,29.3
2022-12-25T18:28:06.173Z,29.4
2022-12-25T18:33:01.235Z,28.3
2022-12-25T18:38:01.276Z,27.3
2022-12-25T18:43:06.196Z,26.8
2022-12-25T18:48:01.157Z,27.4
2022-12-25T18:53:06.253Z,27.6
2022-12-25T18:58:01.250Z,28.3
2022-12-25T19:03:01.539Z,29.0
2022-12-25T19:08:06.202Z,29.5
2022-12-25T19:13:01.255Z,29.4
2022-12-25T19:18:01.231Z,29.7
2022-12-25T19:23:01.327Z,28.7
2022-12-25T19:28:01.189Z,28.2
2022-12-25T19:33:07.433Z,27.2
2022-12-25T19:38:06.180Z,26.6
2022-12-25T19:43:01.410Z,26.3
2022-12-25T19:48:01.265Z,27.3
2022-12-25T19:53:06.264Z,28.6
2022-12-25T19:58:01.188Z,30.0
2022-12-25T20:03:01.469Z,29.8
2022-12-25T20:08:06.813Z,28.4
2022-12-25T20:13:01.256Z,26.7
2022-12-25T20:18:01.809Z,24.1
2022-12-25T20:23:01.879Z,22.4
2022-12-25T20:28:01.172Z,21.5
2022-12-25T20:33:01.282Z,21.0
2022-12-25T20:38:01.255Z,20.6
2022-12-25T20:43:06.181Z,20.0
2022-12-25T20:48:01.177Z,17.6
2022-12-25T20:53:01.273Z,17.0
2022-12-25T20:58:01.202Z,16.7
2022-12-25T21:03:01.541Z,16.2
2022-12-25T21:08:06.296Z,15.4
2022-12-25T21:13:01.171Z,15.7
2022-12-25T21:18:06.182Z,15.0
2022-12-25T21:23:06.183Z,14.1
2022-12-25T21:28:01.275Z,13.3
2022-12-25T21:38:01.316Z,13.0
2022-12-25T21:43:01.162Z,11.5
2022-12-25T21:48:04.649Z,10.3
2022-12-25T21:53:06.948Z,9.3
2022-12-25T21:58:01.167Z,8.6
2022-12-25T22:03:01.497Z,7.6
2022-12-25T22:08:06.401Z,8.1
2022-12-25T22:13:01.302Z,8.6
2022-12-25T22:18:06.465Z,8.2
2022-12-25T22:23:06.176Z,7.7
2022-12-25T22:28:11.401Z,7.0
2022-12-25T22:33:06.208Z,7.0
2022-12-25T22:38:06.215Z,6.5
2022-12-25T22:49:06.250Z,7.4
2022-12-25T22:54:05.206Z,8.6
2022-12-25T23:04:01.375Z,9.1
2022-12-25T23:09:01.195Z,9.0
2022-12-25T23:14:01.182Z,8.9
2022-12-25T23:19:06.251Z,8.6
2022-12-25T23:24:01.172Z,9.0
2022-12-25T23:29:06.236Z,8.9
2022-12-25T23:34:01.242Z,9.2
2022-12-25T23:40:06.234Z,10.0
2022-12-25T23:45:01.672Z,10.7
2022-12-25T23:50:01.231Z,10.7
2022-12-25T23:55:01.234Z,10.6
